Time;durP1;ratioP1;P1;durP2;ratioP2;P2;SDS_P1;SDS_P2;PMS_P1;PMS_P2;Temp;Humidity;BMP_temperature;BMP_pressure;BME280_temperature;BME280_humidity;BME280_pressure;Samples;Min_cycle;Max_cycle;Signal;HPM_P1;HPM_P2
2023/04/29 00:00:40;;;;;;;3.55;0.90;;;;;;;;;;2052211;28;20396;-70
2023/04/29 00:02:00;;;;;;;7.13;1.20;;;;;;;;;;2052633;28;20129;-68
2023/04/29 00:03:19;;;;;;;3.97;1.35;;;;;;;;;;2050915;28;20027;-68
2023/04/29 00:04:38;;;;;;;8.02;1.15;;;;;;;;;;2049954;28;20463;-68
2023/04/29 00:05:57;;;;;;;4.47;1.10;;;;;;;;;;2053750;28;20407;-69
2023/04/29 00:07:16;;;;;;;2.50;1.30;;;;;;;;;;2054601;28;20437;-68
2023/04/29 00:08:35;;;;;;;2.78;1.10;;;;;;;;;;2062257;28;20420;-68
2023/04/29 00:09:54;;;;;;;2.22;1.08;;;;;;;;;;2056987;28;20027;-67
2023/04/29 00:11:13;;;;;;;2.58;1.10;;;;;;;;;;2054418;28;20512;-68
2023/04/29 00:12:32;;;;;;;2.20;0.88;;;;;;;;;;2053420;28;20038;-68
2023/04/29 00:13:51;;;;;;;6.38;1.20;;;;;;;;;;2053526;28;20031;-70
2023/04/29 00:15:10;;;;;;;7.80;1.67;;;;;;;;;;2052133;28;20114;-67
2023/04/29 00:16:29;;;;;;;2.13;1.17;;;;;;;;;;2052440;28;20043;-68
2023/04/29 00:17:49;;;;;;;1.65;0.90;;;;;;;;;;2053547;28;20027;-67
2023/04/29 00:19:08;;;;;;;3.05;1.58;;;;;;;;;;2053561;28;20035;-68
2023/04/29 00:20:27;;;;;;;1.58;0.98;;;;;;;;;;2052807;28;20031;-68
2023/04/29 00:21:46;;;;;;;1.63;1.17;;;;;;;;;;2052074;28;20027;-68
2023/04/29 00:23:06;;;;;;;3.88;1.02;;;;;;;;;;2051714;28;20580;-68
2023/04/29 00:24:25;;;;;;;3.88;1.40;;;;;;;;;;2052917;28;20030;-67
2023/04/29 00:25:44;;;;;;;1.52;1.42;;;;;;;;;;2054551;28;20031;-69
2023/04/29 00:27:05;;;;;;;1.88;1.20;;;;;;;;;;2055120;28;20038;-68
2023/04/29 00:28:24;;;;;;;3.85;1.20;;;;;;;;;;2055179;28;20492;-68
2023/04/29 00:29:42;;;;;;;3.10;1.13;;;;;;;;;;2053350;28;20023;-68
2023/04/29 00:31:01;;;;;;;1.85;1.10;;;;;;;;;;2053666;28;20113;-67
2023/04/29 00:32:21;;;;;;;4.85;1.10;;;;;;;;;;2053920;28;20039;-68
2023/04/29 00:33:40;;;;;;;3.08;0.95;;;;;;;;;;2051950;28;20416;-68
2023/04/29 00:34:59;;;;;;;2.40;1.25;;;;;;;;;;2053925;28;20443;-67
2023/04/29 00:36:18;;;;;;;1.88;0.73;;;;;;;;;;2052407;28;20038;-68
2023/04/29 00:37:37;;;;;;;4.63;1.20;;;;;;;;;;2051824;28;20046;-67
2023/04/29 00:38:57;;;;;;;3.75;1.10;;;;;;;;;;2050960;28;20026;-68
2023/04/29 00:40:16;;;;;;;1.45;1.00;;;;;;;;;;2052922;28;20106;-67
2023/04/29 00:41:35;;;;;;;4.68;1.00;;;;;;;;;;2051343;28;20043;-67
2023/04/29 00:42:54;;;;;;;5.07;1.38;;;;;;;;;;2052475;28;20034;-68
2023/04/29 00:44:13;;;;;;;7.68;1.70;;;;;;;;;;2054205;28;20030;-67
2023/04/29 00:45:32;;;;;;;8.82;2.22;;;;;;;;;;2051895;28;20027;-67
2023/04/29 00:46:51;;;;;;;6.32;1.70;;;;;;;;;;2053461;28;20561;-68
2023/04/29 00:48:10;;;;;;;8.85;1.52;;;;;;;;;;2053854;28;20113;-68
2023/04/29 00:49:30;;;;;;;5.03;1.63;;;;;;;;;;2054784;28;20525;-68
2023/04/29 00:50:50;;;;;;;6.38;1.23;;;;;;;;;;2052510;28;20027;-68
2023/04/29 00:52:10;;;;;;;7.15;1.27;;;;;;;;;;2051816;28;20479;-69
2023/04/29 00:53:29;;;;;;;8.45;1.58;;;;;;;;;;2051637;28;20104;-68
2023/04/29 00:54:49;;;;;;;11.48;2.13;;;;;;;;;;2054211;28;20030;-68
2023/04/29 00:56:09;;;;;;;5.20;1.30;;;;;;;;;;2053677;28;20035;-68
2023/04/29 00:57:28;;;;;;;6.00;1.38;;;;;;;;;;2051910;28;20027;-69
2023/04/29 00:58:51;;;;;;;5.82;1.50;;;;;;;;;;2053555;28;20479;-68
2023/04/29 01:00:10;;;;;;;4.28;1.27;;;;;;;;;;2051970;28;20031;-68
2023/04/29 01:01:29;;;;;;;7.57;1.30;;;;;;;;;;2053842;28;20027;-68
2023/04/29 01:02:48;;;;;;;3.22;1.35;;;;;;;;;;2053095;28;20027;-68
2023/04/29 01:04:08;;;;;;;4.60;1.50;;;;;;;;;;2052787;28;20035;-68
2023/04/29 01:05:27;;;;;;;2.03;1.10;;;;;;;;;;2053608;28;20492;-68
2023/04/29 01:06:51;;;;;;;5.75;1.40;;;;;;;;;;2055405;28;20063;-68
2023/04/29 01:08:27;;;;;;;2.47;1.20;;;;;;;;;;2054271;28;20027;-68
2023/04/29 01:10:06;;;;;;;5.03;1.20;;;;;;;;;;2053976;28;20055;-69
2023/04/29 01:11:27;;;;;;;7.40;1.40;;;;;;;;;;2053552;28;20703;-67
2023/04/29 01:13:00;;;;;;;7.18;1.08;;;;;;;;;;2052043;28;20034;-68
2023/04/29 01:14:20;;;;;;;3.45;1.25;;;;;;;;;;2052335;28;20484;-68
2023/04/29 01:15:48;;;;;;;3.85;1.13;;;;;;;;;;2054312;28;20473;-68
2023/04/29 01:17:13;;;;;;;5.13;1.42;;;;;;;;;;2051952;28;20122;-68
2023/04/29 01:18:43;;;;;;;1.45;1.20;;;;;;;;;;2054500;28;20039;-67
2023/04/29 01:20:03;;;;;;;3.38;1.30;;;;;;;;;;2052948;28;20477;-68
2023/04/29 01:21:23;;;;;;;4.90;1.30;;;;;;;;;;2054505;28;20993;-69
2023/04/29 01:22:42;;;;;;;2.03;1.02;;;;;;;;;;2053767;28;20034;-68
2023/04/29 01:24:01;;;;;;;2.65;0.98;;;;;;;;;;2055780;28;20022;-71
2023/04/29 01:25:21;;;;;;;2.55;1.40;;;;;;;;;;2055586;28;20101;-68
2023/04/29 01:26:41;;;;;;;5.25;1.48;;;;;;;;;;2056058;28;20031;-68
2023/04/29 01:28:13;;;;;;;2.95;1.08;;;;;;;;;;2055519;28;20035;-68
2023/04/29 01:29:42;;;;;;;2.95;0.90;;;;;;;;;;2055967;28;20026;-67
2023/04/29 01:31:11;;;;;;;2.10;0.93;;;;;;;;;;2055232;28;20030;-67
2023/04/29 01:32:42;;;;;;;1.90;1.00;;;;;;;;;;2054127;28;20027;-68
2023/04/29 01:34:08;;;;;;;1.85;0.82;;;;;;;;;;2054821;28;20063;-68
2023/04/29 01:35:46;;;;;;;1.45;0.90;;;;;;;;;;2053355;28;20031;-68
2023/04/29 01:37:20;;;;;;;3.50;0.93;;;;;;;;;;2054109;28;20039;-68
2023/04/29 01:39:01;;;;;;;3.75;1.00;;;;;;;;;;2054864;28;20473;-68
2023/04/29 01:40:37;;;;;;;2.25;1.00;;;;;;;;;;2053493;28;20030;-68
2023/04/29 01:42:00;;;;;;;2.40;1.20;;;;;;;;;;2055092;28;20117;-68
2023/04/29 01:43:21;;;;;;;3.80;1.05;;;;;;;;;;2056020;28;20404;-68
2023/04/29 01:44:41;;;;;;;2.80;1.20;;;;;;;;;;2054862;28;20036;-68
2023/04/29 01:46:03;;;;;;;4.50;0.90;;;;;;;;;;2053874;28;20027;-68
2023/04/29 01:47:22;;;;;;;1.00;0.80;;;;;;;;;;2051498;28;20480;-67
2023/04/29 01:48:42;;;;;;;1.25;0.93;;;;;;;;;;2054801;28;20050;-67
2023/04/29 01:50:01;;;;;;;2.55;0.80;;;;;;;;;;2052509;28;20032;-67
2023/04/29 01:51:20;;;;;;;3.10;1.17;;;;;;;;;;2054710;28;20042;-67
2023/04/29 01:52:39;;;;;;;1.08;0.90;;;;;;;;;;2055491;28;20027;-67
2023/04/29 01:53:58;;;;;;;1.27;0.82;;;;;;;;;;2055238;28;20039;-67
2023/04/29 01:55:17;;;;;;;2.35;0.98;;;;;;;;;;2054670;28;20157;-67
2023/04/29 01:56:36;;;;;;;1.65;0.90;;;;;;;;;;2053637;28;20039;-67
2023/04/29 01:57:55;;;;;;;1.92;1.00;;;;;;;;;;2055651;28;20035;-69
2023/04/29 01:59:15;;;;;;;2.80;1.00;;;;;;;;;;2055632;28;20137;-67
2023/04/29 02:00:34;;;;;;;2.55;0.90;;;;;;;;;;2053440;28;20106;-69
2023/04/29 02:01:53;;;;;;;4.85;1.27;;;;;;;;;;2054534;28;20512;-68
2023/04/29 02:03:12;;;;;;;3.17;0.98;;;;;;;;;;2056783;28;20027;-68
2023/04/29 02:04:33;;;;;;;2.70;0.90;;;;;;;;;;2054502;28;20026;-67
2023/04/29 02:05:52;;;;;;;2.25;1.00;;;;;;;;;;2055168;28;20031;-68
2023/04/29 02:07:11;;;;;;;3.00;1.00;;;;;;;;;;2053193;28;20052;-67
2023/04/29 02:08:30;;;;;;;1.10;0.93;;;;;;;;;;2055898;28;20027;-67
2023/04/29 02:09:49;;;;;;;2.35;1.17;;;;;;;;;;2054205;28;20035;-67
2023/04/29 02:11:07;;;;;;;4.32;1.02;;;;;;;;;;2052935;28;20030;-67
2023/04/29 02:12:27;;;;;;;3.33;1.00;;;;;;;;;;2052692;28;20405;-67
2023/04/29 02:13:46;;;;;;;4.22;0.98;;;;;;;;;;2050295;28;20495;-68
2023/04/29 02:15:05;;;;;;;5.07;1.10;;;;;;;;;;2053931;28;20571;-68
2023/04/29 02:16:24;;;;;;;2.72;1.10;;;;;;;;;;2054952;28;20031;-67
2023/04/29 02:17:44;;;;;;;2.47;0.75;;;;;;;;;;2055370;28;20027;-67
2023/04/29 02:19:03;;;;;;;1.40;1.05;;;;;;;;;;2056176;28;20706;-67
2023/04/29 02:20:22;;;;;;;1.73;0.88;;;;;;;;;;2054758;28;20026;-67
2023/04/29 02:21:41;;;;;;;4.13;1.00;;;;;;;;;;2054600;28;20019;-67
2023/04/29 02:22:59;;;;;;;1.00;0.73;;;;;;;;;;2056077;28;20023;-67
2023/04/29 02:24:18;;;;;;;4.93;1.10;;;;;;;;;;2055979;28;20699;-67
2023/04/29 02:25:37;;;;;;;2.15;0.80;;;;;;;;;;2054003;28;20043;-68
2023/04/29 02:26:57;;;;;;;1.63;0.80;;;;;;;;;;2054714;28;20023;-67
2023/04/29 02:28:17;;;;;;;6.22;1.20;;;;;;;;;;2051332;28;20424;-67
2023/04/29 02:29:36;;;;;;;0.88;0.77;;;;;;;;;;2052876;28;20460;-67
2023/04/29 02:30:55;;;;;;;3.70;0.95;;;;;;;;;;2054108;28;20154;-67
2023/04/29 02:32:14;;;;;;;2.17;1.00;;;;;;;;;;2054539;28;20026;-67
2023/04/29 02:33:33;;;;;;;4.03;1.30;;;;;;;;;;2050427;28;20039;-67
2023/04/29 02:34:52;;;;;;;2.35;0.95;;;;;;;;;;2052914;28;20035;-67
2023/04/29 02:36:11;;;;;;;3.15;1.05;;;;;;;;;;2048858;28;20114;-67
2023/04/29 02:37:30;;;;;;;3.05;0.88;;;;;;;;;;2054329;28;20109;-67
2023/04/29 02:38:49;;;;;;;2.20;1.23;;;;;;;;;;2054145;28;20066;-72
2023/04/29 02:40:08;;;;;;;2.97;1.00;;;;;;;;;;2054834;28;20031;-67
2023/04/29 02:41:28;;;;;;;6.03;1.10;;;;;;;;;;2056456;28;20106;-68
2023/04/29 02:42:47;;;;;;;4.15;1.10;;;;;;;;;;2055976;28;20649;-68
2023/04/29 02:44:07;;;;;;;1.45;1.10;;;;;;;;;;2055478;28;20106;-68
2023/04/29 02:45:26;;;;;;;4.07;1.17;;;;;;;;;;2054179;28;20389;-67
2023/04/29 02:46:45;;;;;;;1.45;1.20;;;;;;;;;;2053171;28;20030;-67
2023/04/29 02:48:05;;;;;;;1.80;0.85;;;;;;;;;;2054255;28;20038;-68
2023/04/29 02:49:24;;;;;;;10.40;1.50;;;;;;;;;;2053525;28;20540;-67
2023/04/29 02:50:43;;;;;;;3.42;1.35;;;;;;;;;;2053141;28;20035;-67
2023/04/29 02:52:02;;;;;;;5.22;1.40;;;;;;;;;;2053708;28;20034;-67
2023/04/29 02:53:21;;;;;;;6.47;1.25;;;;;;;;;;2054047;28;20038;-67
2023/04/29 02:54:39;;;;;;;4.07;1.33;;;;;;;;;;2054702;28;20589;-67
2023/04/29 02:55:58;;;;;;;3.83;1.25;;;;;;;;;;2055057;28;20035;-68
2023/04/29 02:57:17;;;;;;;4.70;1.20;;;;;;;;;;2054125;28;20038;-67
2023/04/29 02:58:36;;;;;;;1.00;0.90;;;;;;;;;;2053445;28;20034;-67
2023/04/29 02:59:56;;;;;;;5.90;0.90;;;;;;;;;;2055532;28;20504;-67
2023/04/29 03:01:15;;;;;;;2.33;1.10;;;;;;;;;;2055157;28;20500;-67
2023/04/29 03:02:34;;;;;;;3.05;1.55;;;;;;;;;;2052957;28;20517;-67
2023/04/29 03:03:53;;;;;;;14.00;1.88;;;;;;;;;;2052903;28;20026;-67
2023/04/29 03:05:12;;;;;;;4.57;1.42;;;;;;;;;;2053678;28;20129;-67
2023/04/29 03:06:31;;;;;;;7.65;1.65;;;;;;;;;;2055252;28;20027;-68
2023/04/29 03:07:50;;;;;;;1.35;0.95;;;;;;;;;;2053674;28;20118;-68
2023/04/29 03:09:09;;;;;;;3.22;1.13;;;;;;;;;;2052866;28;20353;-68
2023/04/29 03:10:28;;;;;;;3.67;1.30;;;;;;;;;;2052675;28;20035;-67
2023/04/29 03:11:48;;;;;;;4.07;1.55;;;;;;;;;;2053839;28;20039;-67
2023/04/29 03:13:06;;;;;;;7.15;1.55;;;;;;;;;;2053627;28;20039;-68
2023/04/29 03:14:25;;;;;;;5.22;1.17;;;;;;;;;;2053100;28;20032;-68
2023/04/29 03:15:44;;;;;;;5.90;1.50;;;;;;;;;;2053283;28;20031;-68
2023/04/29 03:17:03;;;;;;;3.28;1.40;;;;;;;;;;2053874;28;20454;-67
2023/04/29 03:18:22;;;;;;;2.20;1.45;;;;;;;;;;2054197;28;20039;-68
2023/04/29 03:19:41;;;;;;;4.75;1.23;;;;;;;;;;2055080;28;20050;-68
2023/04/29 03:21:03;;;;;;;3.40;1.60;;;;;;;;;;2053268;28;20063;-68
2023/04/29 03:22:22;;;;;;;4.90;1.30;;;;;;;;;;2056585;28;20496;-68
2023/04/29 03:23:41;;;;;;;3.00;1.30;;;;;;;;;;2053579;28;20078;-68
2023/04/29 03:25:00;;;;;;;4.68;1.05;;;;;;;;;;2053404;28;20035;-68
2023/04/29 03:26:23;;;;;;;0.90;0.70;;;;;;;;;;2052400;28;20043;-67
2023/04/29 03:27:42;;;;;;;1.20;1.00;;;;;;;;;;2052715;28;20043;-68
2023/04/29 03:29:01;;;;;;;3.47;1.00;;;;;;;;;;2054491;28;20043;-68
2023/04/29 03:30:20;;;;;;;4.53;1.05;;;;;;;;;;2053521;28;20103;-68
2023/04/29 03:31:40;;;;;;;1.25;0.70;;;;;;;;;;2053622;28;20038;-68
2023/04/29 03:32:59;;;;;;;3.03;0.90;;;;;;;;;;2054202;28;20023;-69
2023/04/29 03:34:18;;;;;;;1.52;0.82;;;;;;;;;;2054605;28;20046;-68
2023/04/29 03:35:37;;;;;;;1.25;0.90;;;;;;;;;;2050817;28;20504;-68
2023/04/29 03:36:56;;;;;;;3.53;0.80;;;;;;;;;;2054489;28;20039;-69
2023/04/29 03:38:15;;;;;;;1.58;0.77;;;;;;;;;;2055349;28;20027;-70
2023/04/29 03:39:34;;;;;;;2.30;1.00;;;;;;;;;;2055504;28;20441;-70
2023/04/29 03:40:53;;;;;;;2.47;0.90;;;;;;;;;;2055899;28;20040;-69
2023/04/29 03:42:12;;;;;;;3.95;1.05;;;;;;;;;;2053726;28;20054;-70
2023/04/29 03:43:31;;;;;;;1.20;0.85;;;;;;;;;;2054329;28;20034;-69
2023/04/29 03:44:50;;;;;;;1.55;0.98;;;;;;;;;;2053003;28;20022;-69
2023/04/29 03:46:09;;;;;;;1.02;0.88;;;;;;;;;;2052962;28;20023;-69
2023/04/29 03:47:28;;;;;;;0.70;0.70;;;;;;;;;;2054191;28;20473;-69
2023/04/29 03:48:47;;;;;;;3.15;0.60;;;;;;;;;;2055009;28;20113;-68
2023/04/29 03:50:07;;;;;;;3.60;0.77;;;;;;;;;;2053077;28;20031;-68
2023/04/29 03:51:26;;;;;;;2.80;0.73;;;;;;;;;;2054202;28;20465;-68
2023/04/29 03:52:46;;;;;;;3.60;1.00;;;;;;;;;;2052707;28;20047;-68
2023/04/29 03:54:05;;;;;;;1.13;0.70;;;;;;;;;;2054336;28;20601;-68
2023/04/29 03:55:24;;;;;;;2.55;1.00;;;;;;;;;;2053611;28;20042;-69
2023/04/29 03:56:43;;;;;;;0.82;0.82;;;;;;;;;;2052552;28;20034;-68
2023/04/29 03:58:02;;;;;;;2.72;0.77;;;;;;;;;;2053531;28;20030;-68
2023/04/29 03:59:21;;;;;;;4.88;0.90;;;;;;;;;;2055731;28;20026;-68
2023/04/29 04:00:40;;;;;;;0.60;0.60;;;;;;;;;;2052878;28;20050;-68
2023/04/29 04:01:59;;;;;;;2.35;0.90;;;;;;;;;;2053788;28;20031;-68
2023/04/29 04:03:18;;;;;;;2.28;0.80;;;;;;;;;;2052050;28;20042;-68
2023/04/29 04:04:37;;;;;;;2.15;0.65;;;;;;;;;;2053080;28;20039;-67
2023/04/29 04:05:55;;;;;;;0.80;0.80;;;;;;;;;;2053260;28;20045;-68
2023/04/29 04:07:15;;;;;;;0.77;0.60;;;;;;;;;;2053326;28;20109;-68
2023/04/29 04:08:33;;;;;;;1.65;0.80;;;;;;;;;;2051794;28;20027;-67
2023/04/29 04:09:52;;;;;;;2.35;0.70;;;;;;;;;;2052590;28;20035;-68
2023/04/29 04:11:13;;;;;;;2.47;1.02;;;;;;;;;;2053193;28;20035;-68
2023/04/29 04:12:32;;;;;;;1.48;0.65;;;;;;;;;;2052177;28;20861;-67
2023/04/29 04:13:51;;;;;;;1.35;0.70;;;;;;;;;;2054715;28;20035;-67
2023/04/29 04:15:10;;;;;;;2.42;0.70;;;;;;;;;;2054432;28;20567;-67
2023/04/29 04:16:29;;;;;;;3.40;0.47;;;;;;;;;;2054148;28;20488;-67
2023/04/29 04:17:48;;;;;;;0.68;0.60;;;;;;;;;;2052446;28;20039;-67
2023/04/29 04:19:07;;;;;;;0.70;0.63;;;;;;;;;;2053991;28;20451;-67
2023/04/29 04:20:26;;;;;;;0.70;0.55;;;;;;;;;;2052573;28;20027;-68
2023/04/29 04:21:45;;;;;;;4.72;0.73;;;;;;;;;;2052869;28;20031;-67
2023/04/29 04:23:04;;;;;;;1.50;1.13;;;;;;;;;;2053488;28;20121;-68
2023/04/29 04:24:23;;;;;;;8.55;0.90;;;;;;;;;;2052065;28;20038;-67
2023/04/29 04:25:48;;;;;;;2.97;0.80;;;;;;;;;;2052835;28;20030;-68
2023/04/29 04:27:07;;;;;;;5.97;0.90;;;;;;;;;;2053073;28;20035;-68
2023/04/29 04:28:26;;;;;;;0.95;0.73;;;;;;;;;;2052116;28;20050;-68
2023/04/29 04:29:45;;;;;;;7.50;0.80;;;;;;;;;;2052434;28;20027;-67
2023/04/29 04:31:04;;;;;;;1.45;0.75;;;;;;;;;;2051209;28;20035;-69
2023/04/29 04:32:23;;;;;;;0.85;0.70;;;;;;;;;;2050085;28;20102;-68
2023/04/29 04:33:42;;;;;;;1.20;0.60;;;;;;;;;;2051439;28;20030;-67
2023/04/29 04:35:01;;;;;;;1.42;0.50;;;;;;;;;;2052798;28;20027;-70
2023/04/29 04:36:20;;;;;;;2.50;0.88;;;;;;;;;;2052752;28;20587;-68
2023/04/29 04:37:39;;;;;;;7.43;1.00;;;;;;;;;;2051919;28;20031;-68
2023/04/29 04:38:58;;;;;;;0.88;0.88;;;;;;;;;;2055581;28;20512;-68
2023/04/29 04:40:17;;;;;;;0.40;0.40;;;;;;;;;;2055008;28;20027;-68
2023/04/29 04:41:37;;;;;;;1.20;0.63;;;;;;;;;;2052815;28;20070;-67
2023/04/29 04:42:56;;;;;;;0.98;0.80;;;;;;;;;;2051993;28;20154;-67
2023/04/29 04:44:15;;;;;;;2.10;1.02;;;;;;;;;;2054599;28;20042;-68
2023/04/29 04:45:34;;;;;;;1.30;0.80;;;;;;;;;;2053780;28;20068;-68
2023/04/29 04:46:53;;;;;;;1.88;0.90;;;;;;;;;;2053099;28;20031;-69
2023/04/29 04:48:12;;;;;;;2.13;1.08;;;;;;;;;;2052342;28;20870;-68
2023/04/29 04:49:31;;;;;;;3.72;1.13;;;;;;;;;;2051280;28;20023;-68
2023/04/29 04:50:50;;;;;;;5.15;1.38;;;;;;;;;;2052257;28;20026;-68
2023/04/29 04:52:08;;;;;;;3.47;0.90;;;;;;;;;;2051483;28;20101;-68
2023/04/29 04:53:27;;;;;;;0.73;0.73;;;;;;;;;;2053370;28;20454;-68
2023/04/29 04:54:46;;;;;;;1.33;1.23;;;;;;;;;;2053428;28;20027;-68
2023/04/29 04:56:06;;;;;;;3.80;1.20;;;;;;;;;;2054940;28;20058;-68
2023/04/29 04:57:25;;;;;;;4.75;1.33;;;;;;;;;;2055384;28;20035;-67
2023/04/29 04:58:44;;;;;;;1.75;1.20;;;;;;;;;;2056054;28;20019;-68
2023/04/29 05:00:04;;;;;;;2.47;0.90;;;;;;;;;;2054314;28;20034;-68
2023/04/29 05:01:22;;;;;;;1.45;0.85;;;;;;;;;;2054848;28;20059;-67
2023/04/29 05:02:41;;;;;;;1.42;1.00;;;;;;;;;;2054036;28;20396;-67
2023/04/29 05:04:01;;;;;;;1.35;1.00;;;;;;;;;;2054310;28;20031;-67
2023/04/29 05:05:20;;;;;;;3.80;1.10;;;;;;;;;;2052667;28;20082;-68
2023/04/29 05:06:42;;;;;;;4.63;1.02;;;;;;;;;;2054482;28;20031;-67
2023/04/29 05:08:01;;;;;;;2.15;1.33;;;;;;;;;;2053240;28;20047;-68
2023/04/29 05:09:20;;;;;;;2.70;1.20;;;;;;;;;;2054561;28;20031;-67
2023/04/29 05:10:39;;;;;;;2.00;1.10;;;;;;;;;;2054116;28;20027;-67
2023/04/29 05:11:58;;;;;;;3.45;1.65;;;;;;;;;;2055758;28;20500;-67
2023/04/29 05:13:17;;;;;;;1.90;0.98;;;;;;;;;;2051268;28;20519;-67
2023/04/29 05:14:36;;;;;;;2.70;1.50;;;;;;;;;;2054299;28;20035;-67
2023/04/29 05:15:55;;;;;;;2.47;1.08;;;;;;;;;;2055538;28;20436;-67
2023/04/29 05:17:14;;;;;;;3.17;1.52;;;;;;;;;;2054293;28;20113;-67
2023/04/29 05:18:33;;;;;;;4.40;1.23;;;;;;;;;;2056339;28;20118;-67
2023/04/29 05:19:52;;;;;;;4.15;1.20;;;;;;;;;;2055160;28;20110;-67
2023/04/29 05:21:12;;;;;;;10.23;1.40;;;;;;;;;;2052533;28;20105;-67
2023/04/29 05:22:30;;;;;;;2.22;1.38;;;;;;;;;;2055749;28;20035;-67
2023/04/29 05:23:49;;;;;;;2.45;1.25;;;;;;;;;;2050699;28;20066;-67
2023/04/29 05:25:09;;;;;;;1.70;1.17;;;;;;;;;;2052603;28;20019;-67
2023/04/29 05:26:28;;;;;;;2.58;1.10;;;;;;;;;;2055085;28;20413;-67
2023/04/29 05:27:46;;;;;;;3.70;1.05;;;;;;;;;;2053741;28;20118;-67
2023/04/29 05:29:05;;;;;;;1.58;1.10;;;;;;;;;;2054255;28;20043;-67
2023/04/29 05:30:24;;;;;;;3.60;1.70;;;;;;;;;;2053689;28;20034;-68
2023/04/29 05:31:43;;;;;;;5.80;1.70;;;;;;;;;;2054948;28;20433;-67
2023/04/29 05:33:02;;;;;;;2.22;1.15;;;;;;;;;;2053180;28;20118;-67
2023/04/29 05:34:21;;;;;;;3.78;1.40;;;;;;;;;;2055472;28;20516;-67
2023/04/29 05:35:40;;;;;;;4.15;1.65;;;;;;;;;;2056857;28;20581;-67
2023/04/29 05:36:59;;;;;;;2.45;1.50;;;;;;;;;;2055879;28;20035;-68
2023/04/29 05:38:18;;;;;;;3.35;1.38;;;;;;;;;;2054561;28;20027;-67
2023/04/29 05:39:37;;;;;;;1.30;1.20;;;;;;;;;;2053912;28;20031;-67
2023/04/29 05:40:56;;;;;;;2.88;1.38;;;;;;;;;;2052596;28;21698;-68
2023/04/29 05:42:15;;;;;;;5.18;1.50;;;;;;;;;;2055211;28;20031;-68
2023/04/29 05:43:34;;;;;;;2.17;1.20;;;;;;;;;;2055994;28;20580;-68
2023/04/29 05:44:53;;;;;;;1.92;1.67;;;;;;;;;;2052987;28;20023;-68
2023/04/29 05:46:11;;;;;;;4.38;1.60;;;;;;;;;;2053585;28;20045;-67
2023/04/29 05:47:31;;;;;;;4.05;1.58;;;;;;;;;;2054621;28;20492;-68
2023/04/29 05:48:49;;;;;;;2.63;1.45;;;;;;;;;;2054219;28;20039;-68
2023/04/29 05:50:08;;;;;;;2.47;1.52;;;;;;;;;;2056717;28;20035;-68
2023/04/29 05:51:27;;;;;;;1.45;1.30;;;;;;;;;;2053124;28;20038;-68
2023/04/29 05:52:46;;;;;;;4.50;1.90;;;;;;;;;;2052939;28;20630;-68
2023/04/29 05:54:05;;;;;;;2.88;1.45;;;;;;;;;;2055092;28;20118;-68
2023/04/29 05:55:24;;;;;;;1.67;1.30;;;;;;;;;;2055654;28;20050;-68
2023/04/29 05:56:43;;;;;;;3.13;1.52;;;;;;;;;;2054251;28;20027;-68
2023/04/29 05:58:02;;;;;;;5.07;1.48;;;;;;;;;;2053472;28;20437;-68
2023/04/29 05:59:20;;;;;;;2.80;1.30;;;;;;;;;;2052940;28;20038;-68
2023/04/29 06:00:40;;;;;;;2.08;1.80;;;;;;;;;;2052963;28;20035;-68
2023/04/29 06:01:59;;;;;;;2.88;1.70;;;;;;;;;;2054003;28;20059;-68
2023/04/29 06:03:18;;;;;;;3.40;1.60;;;;;;;;;;2055030;28;20095;-68
2023/04/29 06:04:37;;;;;;;3.63;1.65;;;;;;;;;;2054304;28;20035;-68
2023/04/29 06:05:57;;;;;;;4.20;1.80;;;;;;;;;;2054725;28;20126;-68
2023/04/29 06:07:16;;;;;;;3.83;1.45;;;;;;;;;;2051778;28;20023;-68
2023/04/29 06:08:36;;;;;;;4.50;1.70;;;;;;;;;;2052902;28;20035;-68
2023/04/29 06:09:54;;;;;;;3.13;1.50;;;;;;;;;;2051874;28;20453;-68
2023/04/29 06:11:13;;;;;;;3.60;1.60;;;;;;;;;;2053458;28;20074;-68
2023/04/29 06:12:32;;;;;;;4.93;1.77;;;;;;;;;;2055243;28;20070;-68
2023/04/29 06:13:51;;;;;;;2.88;1.30;;;;;;;;;;2054767;28;20054;-69
2023/04/29 06:15:10;;;;;;;4.38;1.90;;;;;;;;;;2052593;28;20038;-69
2023/04/29 06:16:30;;;;;;;2.22;1.42;;;;;;;;;;2053569;28;20027;-70
2023/04/29 06:17:49;;;;;;;5.78;1.88;;;;;;;;;;2053897;28;20035;-68
2023/04/29 06:19:08;;;;;;;3.20;2.00;;;;;;;;;;2053334;28;20027;-68
2023/04/29 06:20:27;;;;;;;5.60;1.80;;;;;;;;;;2054724;28;20039;-68
2023/04/29 06:21:46;;;;;;;3.75;2.15;;;;;;;;;;2052807;28;20023;-68
2023/04/29 06:23:05;;;;;;;3.72;1.92;;;;;;;;;;2053936;28;20481;-68
2023/04/29 06:24:23;;;;;;;2.65;1.90;;;;;;;;;;2053488;28;20070;-68
2023/04/29 06:25:43;;;;;;;6.88;1.67;;;;;;;;;;2054015;28;20066;-68
2023/04/29 06:27:03;;;;;;;4.70;1.60;;;;;;;;;;2053861;28;20369;-68
2023/04/29 06:28:22;;;;;;;7.38;1.90;;;;;;;;;;2054308;28;20023;-68
2023/04/29 06:29:41;;;;;;;1.80;1.50;;;;;;;;;;2054984;28;20416;-68
2023/04/29 06:31:00;;;;;;;5.18;1.95;;;;;;;;;;2055958;28;20455;-68
2023/04/29 06:32:19;;;;;;;4.13;1.50;;;;;;;;;;2054067;28;20031;-68
2023/04/29 06:33:38;;;;;;;1.63;1.40;;;;;;;;;;2054045;28;20027;-68
2023/04/29 06:34:57;;;;;;;5.22;2.00;;;;;;;;;;2054636;28;20044;-68
2023/04/29 06:36:16;;;;;;;4.22;1.70;;;;;;;;;;2054501;28;20027;-68
2023/04/29 06:37:35;;;;;;;2.85;1.30;;;;;;;;;;2054150;28;20031;-68
2023/04/29 06:38:54;;;;;;;3.75;1.70;;;;;;;;;;2053106;28;20682;-69
2023/04/29 06:40:13;;;;;;;4.03;1.33;;;;;;;;;;2054128;28;20026;-68
2023/04/29 06:41:33;;;;;;;1.70;1.60;;;;;;;;;;2053018;28;20035;-69
2023/04/29 06:42:52;;;;;;;4.00;1.13;;;;;;;;;;2054029;28;20439;-68
2023/04/29 06:44:11;;;;;;;5.00;1.88;;;;;;;;;;2053644;28;20070;-68
2023/04/29 06:45:30;;;;;;;5.80;1.40;;;;;;;;;;2053595;28;20453;-69
2023/04/29 06:46:49;;;;;;;3.30;1.23;;;;;;;;;;2054880;28;20034;-69
2023/04/29 06:48:08;;;;;;;4.50;1.20;;;;;;;;;;2054469;28;20031;-69
2023/04/29 06:49:28;;;;;;;1.95;1.10;;;;;;;;;;2055572;28;20023;-69
2023/04/29 06:50:51;;;;;;;6.40;1.30;;;;;;;;;;2053486;28;20027;-69
2023/04/29 06:52:10;;;;;;;13.27;1.20;;;;;;;;;;2053543;28;20019;-68
2023/04/29 06:53:29;;;;;;;1.60;1.08;;;;;;;;;;2056215;28;20047;-67
2023/04/29 06:54:48;;;;;;;2.20;1.13;;;;;;;;;;2054127;28;20031;-68
2023/04/29 06:56:07;;;;;;;3.85;0.90;;;;;;;;;;2051075;28;20047;-68
2023/04/29 06:57:26;;;;;;;2.03;1.40;;;;;;;;;;2053737;28;20117;-68
2023/04/29 06:58:45;;;;;;;1.80;1.35;;;;;;;;;;2053079;28;20023;-68
2023/04/29 07:00:04;;;;;;;4.72;1.15;;;;;;;;;;2055012;28;20026;-68
2023/04/29 07:01:23;;;;;;;2.08;1.00;;;;;;;;;;2052815;28;20074;-68
2023/04/29 07:02:42;;;;;;;2.22;1.50;;;;;;;;;;2054078;28;20024;-69
2023/04/29 07:04:01;;;;;;;3.70;1.00;;;;;;;;;;2054433;28;20422;-68
2023/04/29 07:05:20;;;;;;;2.47;1.23;;;;;;;;;;2053471;28;20047;-69
2023/04/29 07:06:39;;;;;;;4.13;1.20;;;;;;;;;;2053103;28;20060;-68
2023/04/29 07:07:58;;;;;;;2.55;1.23;;;;;;;;;;2054622;28;20500;-68
2023/04/29 07:09:17;;;;;;;1.27;0.80;;;;;;;;;;2055201;28;20043;-68
2023/04/29 07:10:36;;;;;;;2.55;0.90;;;;;;;;;;2055359;28;20066;-68
2023/04/29 07:11:55;;;;;;;1.90;1.10;;;;;;;;;;2055119;28;20027;-68
2023/04/29 07:13:14;;;;;;;3.97;1.00;;;;;;;;;;2052521;28;20481;-69
2023/04/29 07:14:33;;;;;;;2.90;1.13;;;;;;;;;;2053213;28;20484;-68
2023/04/29 07:15:52;;;;;;;2.85;0.80;;;;;;;;;;2052640;28;20023;-67
2023/04/29 07:17:10;;;;;;;2.33;0.80;;;;;;;;;;2054948;28;20034;-68
2023/04/29 07:18:29;;;;;;;1.25;0.80;;;;;;;;;;2054347;28;20027;-68
2023/04/29 07:19:48;;;;;;;1.40;0.85;;;;;;;;;;2053706;28;20026;-69
2023/04/29 07:21:07;;;;;;;3.65;1.00;;;;;;;;;;2052735;28;20448;-68
2023/04/29 07:22:26;;;;;;;0.70;0.57;;;;;;;;;;2053134;28;20543;-69
2023/04/29 07:23:45;;;;;;;3.17;0.95;;;;;;;;;;2053385;28;20027;-69
2023/04/29 07:25:04;;;;;;;3.03;0.90;;;;;;;;;;2052884;28;20027;-69
2023/04/29 07:26:23;;;;;;;2.55;0.88;;;;;;;;;;2055239;28;20500;-69
2023/04/29 07:27:46;;;;;;;1.58;0.70;;;;;;;;;;2055217;28;20066;-69
2023/04/29 07:29:05;;;;;;;5.32;1.23;;;;;;;;;;2055033;28;20023;-69
2023/04/29 07:30:24;;;;;;;3.28;0.80;;;;;;;;;;2055346;28;20500;-68
2023/04/29 07:31:43;;;;;;;1.20;0.93;;;;;;;;;;2052536;28;20488;-68
2023/04/29 07:33:03;;;;;;;8.90;1.23;;;;;;;;;;2052980;28;20505;-67
2023/04/29 07:34:23;;;;;;;0.70;0.70;;;;;;;;;;2054005;28;20030;-68
2023/04/29 07:35:43;;;;;;;0.75;0.70;;;;;;;;;;2053762;28;20113;-68
2023/04/29 07:37:02;;;;;;;1.20;0.70;;;;;;;;;;2054080;28;20692;-68
2023/04/29 07:38:21;;;;;;;2.80;0.75;;;;;;;;;;2054481;28;20058;-67
2023/04/29 07:39:41;;;;;;;2.33;0.70;;;;;;;;;;2053665;28;20140;-67
2023/04/29 07:41:00;;;;;;;2.42;0.90;;;;;;;;;;2054093;28;20114;-66
2023/04/29 07:42:19;;;;;;;1.75;0.55;;;;;;;;;;2053749;28;20430;-66
2023/04/29 07:43:38;;;;;;;3.13;0.73;;;;;;;;;;2056534;28;20559;-67
2023/04/29 07:44:58;;;;;;;1.65;0.68;;;;;;;;;;2052419;28;20058;-66
2023/04/29 07:46:17;;;;;;;5.38;1.23;;;;;;;;;;2049890;28;20460;-67
2023/04/29 07:47:36;;;;;;;2.65;0.80;;;;;;;;;;2059316;28;20038;-67
2023/04/29 07:48:55;;;;;;;1.23;0.93;;;;;;;;;;2058041;28;20071;-68
2023/04/29 07:50:14;;;;;;;3.42;0.85;;;;;;;;;;2056023;28;20106;-66
2023/04/29 07:51:33;;;;;;;1.92;1.63;;;;;;;;;;2056400;28;20400;-67
2023/04/29 07:52:53;;;;;;;1.73;0.88;;;;;;;;;;2055100;28;20114;-68
2023/04/29 07:54:12;;;;;;;2.33;1.00;;;;;;;;;;2053870;28;20039;-67
2023/04/29 07:55:31;;;;;;;0.70;0.60;;;;;;;;;;2053415;28;20043;-67
2023/04/29 07:56:51;;;;;;;3.67;0.88;;;;;;;;;;2050418;28;20035;-67
2023/04/29 07:58:10;;;;;;;5.05;0.90;;;;;;;;;;2052637;28;20114;-67